Time;durP1;ratioP1;P1;durP2;ratioP2;P2;SDS_P1;SDS_P2;PMS_P1;PMS_P2;Temp;Humidity;BMP_temperature;BMP_pressure;BME280_temperature;BME280_humidity;BME280_pressure;Samples;Min_cycle;Max_cycle;Signal;HPM_P1;HPM_P2
2021/05/22 00:02:04;;;;;;;0.30;0.20;;;;;;;11.70;100.00;99190.84;5053324;28;20497;-52
2021/05/22 00:04:31;;;;;;;0.30;0.20;;;;;;;11.88;100.00;99191.72;5052998;28;20466;-52
2021/05/22 00:06:57;;;;;;;0.30;0.20;;;;;;;11.80;100.00;99179.69;5045254;28;20844;-52
2021/05/22 00:09:24;;;;;;;0.30;0.20;;;;;;;11.93;100.00;99185.25;5047709;28;20487;-52
2021/05/22 00:11:50;;;;;;;0.30;0.20;;;;;;;11.86;100.00;99195.31;5045059;28;20452;-52
2021/05/22 00:14:17;;;;;;;0.30;0.20;;;;;;;11.54;100.00;99209.38;5047910;28;20471;-51
2021/05/22 00:16:44;;;;;;;0.30;0.20;;;;;;;11.74;100.00;99203.91;5053075;28;20496;-52
2021/05/22 00:19:10;;;;;;;0.30;0.20;;;;;;;11.63;100.00;99202.72;5052832;28;20469;-52
2021/05/22 00:21:37;;;;;;;0.30;0.20;;;;;;;11.62;100.00;99198.34;5052110;28;20863;-52
2021/05/22 00:24:04;;;;;;;0.30;0.20;;;;;;;11.74;100.00;99201.25;5052649;28;20466;-52
2021/05/22 00:26:32;;;;;;;0.30;0.20;;;;;;;11.68;100.00;99200.72;5044105;28;20448;-52
2021/05/22 00:28:58;;;;;;;0.30;0.20;;;;;;;11.43;100.00;99183.31;5048084;28;21022;-53
2021/05/22 00:31:25;;;;;;;0.30;0.20;;;;;;;11.64;100.00;99196.47;5052665;28;20451;-52
2021/05/22 00:33:51;;;;;;;0.30;0.20;;;;;;;11.64;100.00;99201.78;5052371;28;20471;-51
2021/05/22 00:36:18;;;;;;;0.30;0.20;;;;;;;11.67;100.00;99197.19;5052481;28;20455;-52
2021/05/22 00:38:45;;;;;;;0.30;0.20;;;;;;;11.82;100.00;99206.22;5052726;28;20501;-52
2021/05/22 00:41:11;;;;;;;0.30;0.20;;;;;;;11.88;100.00;99213.88;5052595;28;20455;-52
2021/05/22 00:43:38;;;;;;;0.30;0.20;;;;;;;11.93;100.00;99203.88;5052269;28;20479;-52
2021/05/22 00:46:05;;;;;;;0.30;0.20;;;;;;;11.95;100.00;99214.44;5052866;28;20908;-52
2021/05/22 00:48:32;;;;;;;0.30;0.20;;;;;;;11.90;100.00;99212.00;5052450;28;20494;-52
2021/05/22 00:50:59;;;;;;;0.30;0.20;;;;;;;12.10;100.00;99211.00;5052247;28;20954;-52
2021/05/22 00:53:26;;;;;;;0.30;0.20;;;;;;;11.73;100.00;99215.50;5052435;28;20462;-51
2021/05/22 00:55:53;;;;;;;0.30;0.20;;;;;;;11.82;100.00;99220.41;5042600;28;20455;-52
2021/05/22 00:58:20;;;;;;;0.30;0.20;;;;;;;11.83;100.00;99221.25;5049206;28;20446;-53
2021/05/22 01:00:48;;;;;;;0.30;0.20;;;;;;;11.70;100.00;99215.66;5052372;28;20450;-52
2021/05/22 01:03:20;;;;;;;0.40;0.30;;;;;;;11.73;100.00;99210.16;5051980;28;20520;-52
2021/05/22 01:05:47;;;;;;;0.30;0.20;;;;;;;11.85;100.00;99204.25;5052547;28;20838;-51
2021/05/22 01:08:18;;;;;;;0.30;0.20;;;;;;;11.80;100.00;99214.28;5038765;28;20455;-51
2021/05/22 01:10:50;;;;;;;0.30;0.20;;;;;;;11.77;100.00;99213.53;5052270;28;20504;-52
2021/05/22 01:13:19;;;;;;;34.67;1.33;;;;;;;11.92;100.00;99226.09;5038755;28;20478;-51
2021/05/22 01:15:50;;;;;;;0.30;0.20;;;;;;;11.69;100.00;99227.25;5051924;28;20932;-51
2021/05/22 01:18:17;;;;;;;0.30;0.20;;;;;;;11.77;100.00;99227.69;5052401;28;20516;-51
2021/05/22 01:20:53;;;;;;;0.30;0.20;;;;;;;11.72;100.00;99234.22;5051977;28;20964;-52
2021/05/22 01:23:28;;;;;;;0.30;0.20;;;;;;;11.67;100.00;99233.59;5051877;28;21046;-52
2021/05/22 01:25:56;;;;;;;0.30;0.20;;;;;;;11.71;100.00;99237.81;5048163;28;20861;-52
2021/05/22 01:28:23;;;;;;;0.30;0.20;;;;;;;11.69;100.00;99245.88;5042749;28;20451;-51
2021/05/22 01:30:51;;;;;;;0.30;0.20;;;;;;;11.73;100.00;99246.59;5052087;28;20776;-52
2021/05/22 01:33:20;;;;;;;0.40;0.20;;;;;;;11.28;100.00;99240.78;5054185;28;20471;-52
2021/05/22 01:35:48;;;;;;;0.30;0.20;;;;;;;11.27;100.00;99243.53;5055919;28;20450;-52
2021/05/22 01:38:14;;;;;;;0.30;0.20;;;;;;;11.06;100.00;99232.09;5055902;28;20931;-52
2021/05/22 01:40:41;;;;;;;0.30;0.20;;;;;;;11.20;100.00;99228.78;5055788;28;20454;-53
2021/05/22 01:43:09;;;;;;;0.30;0.20;;;;;;;11.22;100.00;99230.44;5055565;28;20496;-52
2021/05/22 01:45:45;;;;;;;0.30;0.20;;;;;;;11.22;100.00;99229.56;5055769;28;20450;-52
2021/05/22 01:48:15;;;;;;;0.30;0.20;;;;;;;11.21;100.00;99235.81;5055917;28;20530;-51
2021/05/22 01:50:48;;;;;;;0.30;0.20;;;;;;;11.36;100.00;99235.09;5035973;28;20501;-52
2021/05/22 01:53:16;;;;;;;0.30;0.20;;;;;;;11.35;100.00;99229.84;5050493;28;20501;-51
2021/05/22 01:55:46;;;;;;;0.30;0.20;;;;;;;11.35;100.00;99235.16;5047214;28;20506;-52
2021/05/22 01:58:13;;;;;;;0.30;0.20;;;;;;;11.52;100.00;99238.75;5050992;28;20462;-51
2021/05/22 02:00:40;;;;;;;0.30;0.20;;;;;;;11.66;100.00;99240.72;5055600;28;20516;-52
2021/05/22 02:03:22;;;;;;;0.30;0.20;;;;;;;11.52;100.00;99228.09;5055329;28;20496;-51
2021/05/22 02:05:52;;;;;;;0.30;0.20;;;;;;;11.65;100.00;99223.03;5055372;28;20443;-52
2021/05/22 02:08:20;;;;;;;0.30;0.20;;;;;;;11.44;100.00;99230.25;5024229;28;20923;-52
2021/05/22 02:10:48;;;;;;;0.30;0.20;;;;;;;11.66;100.00;99229.22;5037494;28;20451;-52
2021/05/22 02:13:15;;;;;;;0.30;0.20;;;;;;;11.44;100.00;99234.72;5041653;28;20983;-52
2021/05/22 02:15:49;;;;;;;0.30;0.20;;;;;;;11.39;100.00;99239.41;5055181;28;20939;-52
2021/05/22 02:18:18;;;;;;;0.30;0.20;;;;;;;11.37;100.00;99244.78;5035284;28;20513;-52
2021/05/22 02:20:46;;;;;;;0.30;0.20;;;;;;;11.22;100.00;99234.88;5049255;28;20508;-52
2021/05/22 02:23:16;;;;;;;0.30;0.20;;;;;;;11.28;100.00;99240.78;5056846;28;20471;-52
2021/05/22 02:25:43;;;;;;;0.30;0.20;;;;;;;11.13;100.00;99236.22;5054755;28;20446;-52
2021/05/22 02:28:10;;;;;;;0.30;0.20;;;;;;;11.38;100.00;99229.72;5043827;28;20860;-52
2021/05/22 02:30:41;;;;;;;0.30;0.20;;;;;;;11.21;100.00;99235.81;5054865;28;20547;-52
2021/05/22 02:33:11;;;;;;;0.30;0.20;;;;;;;11.36;100.00;99235.09;5054954;28;20447;-52
2021/05/22 02:35:40;;;;;;;0.30;0.20;;;;;;;11.12;100.00;99234.50;5054923;28;20508;-52
2021/05/22 02:38:18;;;;;;;0.30;0.20;;;;;;;11.09;100.00;99234.59;5054766;28;20490;-52
2021/05/22 02:40:45;;;;;;;0.30;0.20;;;;;;;11.08;100.00;99235.56;5054692;28;20438;-52
2021/05/22 02:43:13;;;;;;;0.30;0.20;;;;;;;11.01;100.00;99236.78;5036386;28;20479;-52
2021/05/22 02:45:44;;;;;;;0.30;0.20;;;;;;;10.90;100.00;99244.41;5054450;28;20455;-52
2021/05/22 02:48:17;;;;;;;0.30;0.20;;;;;;;10.98;100.00;99237.81;5054823;28;20447;-53
2021/05/22 02:50:49;;;;;;;0.30;0.20;;;;;;;10.96;100.00;99242.34;5034747;28;20491;-52
2021/05/22 02:53:22;;;;;;;0.30;0.30;;;;;;;10.78;100.00;99240.50;5048763;28;20470;-52
2021/05/22 02:55:50;;;;;;;0.30;0.20;;;;;;;10.70;100.00;99248.00;5045914;28;20444;-52
2021/05/22 02:58:18;;;;;;;0.30;0.20;;;;;;;10.61;100.00;99243.97;5049817;28;20451;-52
2021/05/22 03:00:44;;;;;;;0.30;0.20;;;;;;;10.82;100.00;99244.75;5036703;28;20447;-52
2021/05/22 03:03:11;;;;;;;0.30;0.20;;;;;;;10.93;100.00;99242.47;5054179;28;20451;-52
2021/05/22 03:05:40;;;;;;;0.30;0.20;;;;;;;10.71;100.00;99243.53;5036522;28;20443;-52
2021/05/22 03:08:07;;;;;;;0.30;0.20;;;;;;;10.86;100.00;99245.50;5040828;28;20454;-52
2021/05/22 03:10:33;;;;;;;0.30;0.20;;;;;;;10.84;100.00;99244.72;5053913;28;20904;-52
2021/05/22 03:13:00;;;;;;;0.30;0.20;;;;;;;10.89;100.00;99254.19;5040427;28;20505;-52
2021/05/22 03:15:26;;;;;;;0.30;0.20;;;;;;;10.70;100.00;99250.66;5054203;28;20446;-52
2021/05/22 03:17:53;;;;;;;0.30;0.20;;;;;;;10.89;100.00;99250.66;5054087;28;20447;-52
2021/05/22 03:20:20;;;;;;;0.30;0.20;;;;;;;10.89;100.00;99243.53;5054096;28;20450;-53
2021/05/22 03:22:46;;;;;;;0.30;0.20;;;;;;;10.79;100.00;99244.03;5036035;28;20450;-52
2021/05/22 03:25:13;;;;;;;0.30;0.20;;;;;;;10.94;100.00;99254.81;5053725;28;20474;-52
2021/05/22 03:27:40;;;;;;;0.30;0.20;;;;;;;10.96;100.00;99260.06;5040434;28;20504;-52
2021/05/22 03:30:08;;;;;;;0.30;0.20;;;;;;;10.98;100.00;99251.09;5053813;28;20547;-52
2021/05/22 03:32:35;;;;;;;0.30;0.20;;;;;;;11.10;100.00;99249.66;5053586;28;20513;-52
2021/05/22 03:35:03;;;;;;;0.30;0.20;;;;;;;11.07;100.00;99259.56;5053570;28;20520;-52
2021/05/22 03:37:30;;;;;;;0.37;0.30;;;;;;;11.12;100.00;99263.75;5053388;28;20842;-51
2021/05/22 03:39:57;;;;;;;0.30;0.20;;;;;;;11.07;100.00;99270.19;5053819;28;20447;-52
2021/05/22 03:42:24;;;;;;;0.30;0.20;;;;;;;11.18;100.00;99267.91;5052432;28;20447;-52
2021/05/22 03:44:52;;;;;;;0.30;0.20;;;;;;;11.11;100.00;99269.13;5035833;28;20987;-52
2021/05/22 03:47:18;;;;;;;0.30;0.20;;;;;;;11.27;100.00;99271.00;5053438;28;20459;-52
2021/05/22 03:49:45;;;;;;;0.30;0.20;;;;;;;11.20;100.00;99263.38;5053407;28;20494;-54
2021/05/22 03:52:11;;;;;;;0.30;0.20;;;;;;;11.18;100.00;99270.56;5033384;28;20482;-52
2021/05/22 03:54:38;;;;;;;0.30;0.20;;;;;;;11.24;100.00;99260.50;5046448;28;20886;-52
2021/05/22 03:57:05;;;;;;;0.30;0.20;;;;;;;11.28;100.00;99269.19;5039865;28;20874;-53
2021/05/22 03:59:32;;;;;;;0.30;0.20;;;;;;;11.14;100.00;99271.66;5053291;28;20438;-51
2021/05/22 04:01:58;;;;;;;0.30;0.20;;;;;;;11.27;100.00;99268.34;5053175;28;20852;-52
2021/05/22 04:04:25;;;;;;;0.30;0.20;;;;;;;11.41;100.00;99273.00;5052710;28;20471;-51
2021/05/22 04:06:52;;;;;;;0.30;0.20;;;;;;;11.31;100.00;99269.03;5045962;28;20925;-51
2021/05/22 04:09:19;;;;;;;0.30;0.20;;;;;;;11.50;100.00;99275.19;5046945;28;20564;-52
2021/05/22 04:11:45;;;;;;;0.30;0.20;;;;;;;11.51;100.00;99268.06;5045795;28;20498;-51
2021/05/22 04:14:12;;;;;;;0.30;0.20;;;;;;;11.56;100.00;99285.56;5046874;28;20526;-52
2021/05/22 04:16:38;;;;;;;0.30;0.20;;;;;;;11.49;100.00;99284.09;5053031;28;20451;-52
2021/05/22 04:19:05;;;;;;;0.30;0.20;;;;;;;11.71;100.00;99285.72;5052751;28;20450;-52
2021/05/22 04:21:32;;;;;;;0.30;0.20;;;;;;;11.58;100.00;99275.69;5052760;28;20450;-53
2021/05/22 04:23:59;;;;;;;0.30;0.20;;;;;;;11.64;100.00;99282.50;5035122;28;20471;-51
2021/05/22 04:26:25;;;;;;;0.30;0.20;;;;;;;11.50;100.00;99277.84;5027375;28;20451;-52
2021/05/22 04:28:52;;;;;;;0.30;0.20;;;;;;;11.49;100.00;99284.09;5047100;28;20504;-51
2021/05/22 04:31:19;;;;;;;0.30;0.20;;;;;;;11.51;100.00;99278.72;5052556;28;20537;-51
2021/05/22 04:33:45;;;;;;;0.30;0.27;;;;;;;11.57;100.00;99292.59;5052635;28;20466;-51
2021/05/22 04:36:12;;;;;;;0.30;0.20;;;;;;;11.60;100.00;99283.59;5052790;28;20443;-52
2021/05/22 04:38:39;;;;;;;0.30;0.20;;;;;;;11.63;100.00;99279.91;5034820;28;20448;-52
2021/05/22 04:41:05;;;;;;;0.30;0.20;;;;;;;11.76;100.00;99281.91;5052493;28;20936;-52
2021/05/22 04:43:32;;;;;;;0.30;0.20;;;;;;;12.00;100.00;99277.19;5034945;28;20543;-53
2021/05/22 04:45:59;;;;;;;0.30;0.20;;;;;;;12.01;100.00;99280.69;5052429;28;20857;-54
2021/05/22 04:48:25;;;;;;;0.30;0.20;;;;;;;11.96;100.00;99283.59;5052159;28;20481;-52
2021/05/22 04:50:54;;;;;;;0.30;0.20;;;;;;;11.78;100.00;99287.13;5052495;28;20494;-53
2021/05/22 04:53:23;;;;;;;0.30;0.20;;;;;;;11.78;100.00;99285.34;5052208;28;20471;-53
2021/05/22 04:55:49;;;;;;;0.30;0.20;;;;;;;11.73;100.00;99289.19;5025201;28;20452;-54
2021/05/22 04:58:16;;;;;;;0.30;0.20;;;;;;;11.69;100.00;99293.78;5048483;28;20450;-53
2021/05/22 05:00:43;;;;;;;0.30;0.20;;;;;;;11.70;99.80;99306.16;5052224;28;20613;-53
2021/05/22 05:03:09;;;;;;;0.30;0.20;;;;;;;11.78;99.98;99300.44;5051900;28;20454;-53
2021/05/22 05:05:36;;;;;;;0.30;0.20;;;;;;;11.84;100.00;99302.88;5052009;28;20443;-53
2021/05/22 05:08:03;;;;;;;0.30;0.20;;;;;;;11.92;97.92;99295.34;5038539;28;20447;-54
2021/05/22 05:10:30;;;;;;;0.30;0.20;;;;;;;11.75;99.33;99301.47;5051938;28;20513;-53
2021/05/22 05:12:56;;;;;;;0.30;0.20;;;;;;;11.62;99.15;99300.34;5038934;28;20458;-56
2021/05/22 05:15:23;;;;;;;0.30;0.20;;;;;;;11.88;99.71;99307.09;5052045;28;20451;-55
2021/05/22 05:17:50;;;;;;;9.33;1.23;;;;;;;11.92;100.00;99299.78;5052221;28;20512;-55
2021/05/22 05:20:16;;;;;;;0.30;0.20;;;;;;;12.05;99.12;99300.91;5052279;28;20493;-53
2021/05/22 05:22:43;;;;;;;0.30;0.20;;;;;;;12.26;97.41;99306.97;5052153;28;20454;-53
2021/05/22 05:25:10;;;;;;;0.30;0.20;;;;;;;12.15;96.30;99304.84;5052402;28;20471;-54
2021/05/22 05:27:37;;;;;;;0.30;0.20;;;;;;;12.03;96.30;99298.31;5039825;28;20454;-54
2021/05/22 05:30:04;;;;;;;0.30;0.20;;;;;;;12.06;96.12;99308.84;5052858;28;20487;-54
2021/05/22 05:32:31;;;;;;;0.40;0.30;;;;;;;12.01;96.24;99305.53;5053110;28;20496;-54
2021/05/22 05:34:58;;;;;;;0.30;0.20;;;;;;;11.98;96.71;99308.34;5053183;28;20847;-54
2021/05/22 05:37:24;;;;;;;0.30;0.20;;;;;;;11.78;98.42;99308.44;5053002;28;20451;-54
2021/05/22 05:39:51;;;;;;;0.30;0.20;;;;;;;11.81;97.17;99303.88;5053314;28;20447;-54
2021/05/22 05:42:17;;;;;;;0.30;0.20;;;;;;;11.86;97.84;99303.63;5052730;28;20516;-54
2021/05/22 05:44:44;;;;;;;0.30;0.20;;;;;;;11.80;98.02;99310.16;5052729;28;20483;-54
2021/05/22 05:47:10;;;;;;;0.30;0.20;;;;;;;11.83;97.49;99301.13;5053364;28;20451;-54
2021/05/22 05:49:37;;;;;;;0.30;0.20;;;;;;;12.04;97.11;99293.84;5053083;28;20497;-54
2021/05/22 05:52:04;;;;;;;0.30;0.20;;;;;;;12.08;97.53;99293.66;5053049;28;20453;-54
2021/05/22 05:54:31;;;;;;;0.30;0.20;;;;;;;12.39;94.94;99289.41;5053187;28;20479;-54
2021/05/22 05:56:57;;;;;;;0.30;0.20;;;;;;;12.99;92.39;99289.72;5039386;28;20451;-54
2021/05/22 05:59:24;;;;;;;0.30;0.20;;;;;;;13.40;92.08;99291.94;5052207;28;20450;-54
2021/05/22 06:01:51;;;;;;;0.30;0.20;;;;;;;13.30;92.46;99283.63;5051831;28;20480;-54
2021/05/22 06:04:17;;;;;;;0.30;0.20;;;;;;;13.19;89.98;99292.22;5052163;28;21050;-54
2021/05/22 06:06:44;;;;;;;0.30;0.20;;;;;;;13.16;90.79;99296.84;5047069;28;20456;-54
2021/05/22 06:09:10;;;;;;;0.30;0.20;;;;;;;12.98;91.26;99299.53;5046038;28;20455;-54
2021/05/22 06:11:38;;;;;;;0.30;0.20;;;;;;;13.04;90.27;99293.88;5046673;28;20598;-54
2021/05/22 06:14:11;;;;;;;0.30;0.20;;;;;;;12.64;91.15;99289.84;5046446;28;20524;-54
2021/05/22 06:16:39;;;;;;;0.30;0.20;;;;;;;12.79;89.67;99292.63;5033743;28;20452;-54
2021/05/22 06:19:05;;;;;;;0.30;0.20;;;;;;;12.93;91.69;99293.59;5049247;28;20484;-54
2021/05/22 06:21:35;;;;;;;0.40;0.40;;;;;;;12.88;92.54;99292.97;5055754;28;20446;-54
2021/05/22 06:24:03;;;;;;;0.30;0.20;;;;;;;13.08;91.58;99293.72;5055991;28;20470;-53
2021/05/22 06:26:29;;;;;;;0.30;0.20;;;;;;;12.92;92.74;99293.69;5047504;28;20952;-54
2021/05/22 06:28:56;;;;;;;0.30;0.20;;;;;;;12.67;92.80;99288.81;5050677;28;20450;-54
2021/05/22 06:31:23;;;;;;;0.30;0.20;;;;;;;12.61;93.48;99300.66;5055715;28;20880;-55
2021/05/22 06:33:49;;;;;;;0.30;0.20;;;;;;;12.79;93.64;99312.16;5054874;28;20883;-55
2021/05/22 06:36:16;;;;;;;0.30;0.20;;;;;;;12.66;93.30;99295.09;5055519;28;20516;-55
2021/05/22 06:38:42;;;;;;;0.30;0.20;;;;;;;12.81;92.64;99291.59;5055498;28;20525;-55
2021/05/22 06:41:09;;;;;;;0.30;0.20;;;;;;;13.15;92.37;99289.75;5055673;28;20443;-55
2021/05/22 06:43:36;;;;;;;0.30;0.20;;;;;;;13.34;89.70;99287.81;5054971;28;20543;-55
2021/05/22 06:46:46;;;;;;;0.30;0.20;;;;;;;13.56;89.52;99288.31;5055538;28;20443;-55
2021/05/22 06:48:49;;;;;;;0.30;0.20;;;;;;;13.96;88.51;99285.16;5048510;28;20458;-55
2021/05/22 06:51:16;;;;;;;0.30;0.20;;;;;;;14.15;87.48;99289.34;5038596;28;20487;-56
2021/05/22 06:53:43;;;;;;;0.30;0.20;;;;;;;14.20;85.19;99292.59;5053467;28;20536;-56
2021/05/22 06:56:10;;;;;;;0.30;0.20;;;;;;;14.15;84.74;99285.81;5042676;28;20518;-56
2021/05/22 06:58:36;;;;;;;0.30;0.20;;;;;;;14.07;86.04;99280.06;5053478;28;20451;-56
2021/05/22 07:01:03;;;;;;;0.30;0.20;;;;;;;14.12;86.67;99294.03;5054525;28;20446;-56
2021/05/22 07:03:30;;;;;;;0.30;0.20;;;;;;;14.16;85.72;99279.53;5054304;28;20466;-56
2021/05/22 07:05:58;;;;;;;0.30;0.20;;;;;;;14.33;85.08;99287.38;5054107;28;20500;-57
2021/05/22 07:08:25;;;;;;;0.30;0.20;;;;;;;14.19;85.06;99288.22;5040978;28;20450;-56
2021/05/22 07:10:51;;;;;;;0.30;0.20;;;;;;;14.22;85.09;99280.00;5054103;28;20491;-57
2021/05/22 07:13:18;;;;;;;0.30;0.20;;;;;;;14.07;84.51;99277.38;5034200;28;20538;-57
2021/05/22 07:15:44;;;;;;;0.30;0.20;;;;;;;14.38;83.32;99279.06;5047439;28;20928;-57
2021/05/22 07:18:15;;;;;;;0.30;0.20;;;;;;;14.48;83.07;99291.84;5053969;28;20478;-57
2021/05/22 07:20:41;;;;;;;0.30;0.20;;;;;;;14.08;83.73;99284.44;5054062;28;20509;-57
2021/05/22 07:23:08;;;;;;;0.30;0.20;;;;;;;14.04;84.30;99281.09;5054113;28;20450;-57
2021/05/22 07:25:35;;;;;;;0.30;0.20;;;;;;;14.00;83.80;99295.59;5052427;28;20962;-57
2021/05/22 07:28:02;;;;;;;0.30;0.20;;;;;;;13.89;84.63;99282.88;5042236;28;20486;-56
2021/05/22 07:30:29;;;;;;;0.30;0.20;;;;;;;13.81;84.85;99292.25;5051296;28;20513;-57
2021/05/22 07:32:55;;;;;;;0.30;0.20;;;;;;;13.96;84.65;99291.38;5053544;28;20457;-57
2021/05/22 07:35:22;;;;;;;0.30;0.20;;;;;;;13.91;84.52;99302.34;5053690;28;20485;-57
2021/05/22 07:37:48;;;;;;;0.30;0.20;;;;;;;13.99;83.76;99293.88;5053611;28;20799;-56
2021/05/22 07:40:15;;;;;;;0.30;0.20;;;;;;;14.06;84.30;99297.03;5053753;28;20500;-56
2021/05/22 07:42:48;;;;;;;0.30;0.20;;;;;;;14.27;84.41;99303.81;5053745;28;20867;-57
2021/05/22 07:45:14;;;;;;;0.30;0.20;;;;;;;14.13;82.90;99303.75;5053300;28;20494;-56
2021/05/22 07:47:42;;;;;;;0.30;0.20;;;;;;;14.47;82.09;99298.13;5053527;28;20932;-57
2021/05/22 07:50:10;;;;;;;0.30;0.20;;;;;;;14.29;82.75;99298.38;5053627;28;20482;-57
2021/05/22 07:52:38;;;;;;;0.30;0.20;;;;;;;14.38;82.12;99311.16;5053400;28;20850;-57
2021/05/22 07:55:05;;;;;;;0.40;0.40;;;;;;;14.45;82.47;99284.00;5032208;28;20502;-57
2021/05/22 07:57:32;;;;;;;0.30;0.20;;;;;;;14.68;81.89;99309.34;5043882;28;20478;-57
2021/05/22 07:59:58;;;;;;;0.30;0.20;;;;;;;14.72;80.64;99302.00;5053152;28;20509;-57
2021/05/22 08:02:25;;;;;;;0.30;0.20;;;;;;;14.72;79.20;99304.69;5053697;28;20451;-57
2021/05/22 08:04:52;;;;;;;0.30;0.20;;;;;;;14.63;80.74;99307.91;5053076;28;21015;-57
2021/05/22 08:07:19;;;;;;;0.30;0.20;;;;;;;14.72;79.62;99310.03;5042644;28;20856;-58
2021/05/22 08:09:45;;;;;;;0.30;0.20;;;;;;;14.87;80.10;99325.13;5050573;28;20458;-58
2021/05/22 08:12:12;;;;;;;0.30;0.20;;;;;;;14.68;79.54;99317.38;5041593;28;20495;-58
2021/05/22 08:14:38;;;;;;;0.30;0.20;;;;;;;14.93;79.67;99323.88;5051406;28;20505;-58
2021/05/22 08:17:06;;;;;;;0.30;0.20;;;;;;;14.88;78.23;99318.81;5052920;28;20504;-58
2021/05/22 08:19:33;;;;;;;0.30;0.20;;;;;;;14.48;78.73;99317.72;5052841;28;20447;-58
2021/05/22 08:21:59;;;;;;;0.30;0.20;;;;;;;14.41;79.62;99321.69;5052887;28;20524;-58
2021/05/22 08:24:26;;;;;;;0.30;0.20;;;;;;;14.72;79.59;99318.06;5052563;28;20474;-58
2021/05/22 08:26:53;;;;;;;0.30;0.20;;;;;;;15.15;78.79;99326.09;5040938;28;20956;-58
2021/05/22 08:29:39;;;;;;;0.30;0.20;;;;;;;15.09;77.45;99322.84;5018148;28;20530;-58
2021/05/22 08:32:06;;;;;;;0.30;0.20;;;;;;;15.25;75.71;99321.88;5029791;28;20491;-57
2021/05/22 08:34:35;;;;;;;0.40;0.37;;;;;;;15.07;77.47;99315.84;5052485;28;20467;-56
2021/05/22 08:37:02;;;;;;;0.30;0.20;;;;;;;15.05;77.89;99318.63;5052626;28;20512;-56
2021/05/22 08:39:29;;;;;;;0.30;0.20;;;;;;;14.88;77.22;99312.63;5052569;28;20478;-56
2021/05/22 08:41:56;;;;;;;0.30;0.20;;;;;;;14.99;78.65;99312.81;5052098;28;20497;-56
2021/05/22 08:44:23;;;;;;;0.30;0.20;;;;;;;15.04;77.29;99314.22;5052284;28;20995;-56
2021/05/22 08:46:50;;;;;;;0.30;0.20;;;;;;;14.90;77.63;99314.22;5052962;28;20508;-57
2021/05/22 08:49:17;;;;;;;0.30;0.20;;;;;;;15.05;75.97;99320.44;5034951;28;20455;-56
2021/05/22 08:51:44;;;;;;;0.30;0.20;;;;;;;14.85;76.72;99328.88;5052510;28;20536;-57
2021/05/22 08:54:10;;;;;;;0.30;0.20;;;;;;;14.66;76.90;99329.97;5052404;28;20857;-57
2021/05/22 08:56:37;;;;;;;0.30;0.20;;;;;;;14.76;75.75;99328.47;5039378;28;20451;-57
2021/05/22 08:59:06;;;;;;;0.30;0.20;;;;;;;14.84;75.78;99319.97;5052435;28;20532;-57
2021/05/22 09:01:33;;;;;;;0.30;0.20;;;;;;;15.22;75.87;99341.69;5052251;28;20443;-57
2021/05/22 09:03:59;;;;;;;0.30;0.20;;;;;;;15.17;74.76;99327.72;5052646;28;20467;-56
2021/05/22 09:06:26;;;;;;;0.30;0.20;;;;;;;15.20;73.67;99332.00;5031046;28;20808;-56
2021/05/22 09:09:01;;;;;;;0.30;0.20;;;;;;;15.11;73.64;99339.66;5042420;28;20447;-56
2021/05/22 09:11:28;;;;;;;0.30;0.20;;;;;;;15.21;75.19;99329.22;5047663;28;20525;-56
2021/05/22 09:13:55;;;;;;;0.30;0.20;;;;;;;15.44;74.62;99333.13;5043660;28;20545;-56
2021/05/22 09:16:34;;;;;;;0.30;0.20;;;;;;;15.50;73.08;99337.25;5052279;28;20516;-56
2021/05/22 09:19:02;;;;;;;0.30;0.20;;;;;;;15.34;73.21;99345.38;5052249;28;20446;-56
2021/05/22 09:21:34;;;;;;;0.30;0.20;;;;;;;15.29;71.94;99345.69;5052025;28;20782;-57
2021/05/22 09:24:01;;;;;;;0.30;0.20;;;;;;;15.33;71.86;99349.03;5052253;28;20470;-57
2021/05/22 09:26:33;;;;;;;0.30;0.20;;;;;;;15.13;71.08;99355.63;5044476;28;20448;-56
2021/05/22 09:29:01;;;;;;;0.30;0.20;;;;;;;14.77;73.00;99348.91;5047993;28;20446;-56
2021/05/22 09:31:29;;;;;;;0.30;0.20;;;;;;;14.89;73.63;99357.13;5051948;28;20488;-57
2021/05/22 09:34:00;;;;;;;3.17;0.87;;;;;;;15.03;72.13;99365.19;5051715;28;21033;-56
2021/05/22 09:36:27;;;;;;;0.30;0.20;;;;;;;14.92;72.34;99360.47;5052249;28;21018;-57
2021/05/22 09:38:55;;;;;;;0.30;0.20;;;;;;;15.44;71.88;99357.25;5052071;28;20447;-57
2021/05/22 09:41:23;;;;;;;0.40;0.40;;;;;;;15.31;71.56;99353.63;5052011;28;20508;-57
2021/05/22 09:44:11;;;;;;;0.30;0.20;;;;;;;15.70;70.89;99356.47;5051877;28;20482;-57
2021/05/22 09:46:44;;;;;;;0.30;0.20;;;;;;;15.65;71.17;99361.28;5052154;28;20446;-57
2021/05/22 09:49:25;;;;;;;0.30;0.20;;;;;;;15.87;68.84;99358.03;5052436;28;20452;-57
2021/05/22 09:52:09;;;;;;;0.30;0.20;;;;;;;15.67;70.29;99364.72;5051787;28;20486;-57
2021/05/22 09:54:48;;;;;;;0.30;0.20;;;;;;;15.81;71.43;99363.81;5036628;28;20491;-57
2021/05/22 09:57:35;;;;;;;0.30;0.20;;;;;;;15.89;71.59;99365.97;5026461;28;20799;-57
2021/05/22 10:00:07;;;;;;;0.30;0.20;;;;;;;15.93;71.36;99373.75;5046449;28;20537;-57
2021/05/22 10:02:41;;;;;;;0.30;0.20;;;;;;;16.08;72.47;99379.06;5055617;28;20455;-58
2021/05/22 10:05:15;;;;;;;0.30;0.20;;;;;;;16.03;70.15;99379.34;5055537;28;20470;-58
2021/05/22 10:07:45;;;;;;;0.30;0.20;;;;;;;16.03;69.15;99386.53;5042219;28;20509;-57
2021/05/22 10:10:14;;;;;;;0.30;0.20;;;;;;;15.79;68.60;99384.50;5055784;28;20508;-57
2021/05/22 10:12:43;;;;;;;0.30;0.20;;;;;;;15.78;69.88;99390.81;5042373;28;20564;-57
2021/05/22 10:15:11;;;;;;;0.30;0.20;;;;;;;16.02;69.20;99391.03;5055443;28;20480;-57
2021/05/22 10:17:39;;;;;;;0.30;0.20;;;;;;;16.15;69.25;99385.72;5055410;28;20867;-57
2021/05/22 10:20:06;;;;;;;0.30;0.20;;;;;;;16.10;68.91;99393.22;5055716;28;20509;-57
2021/05/22 10:22:34;;;;;;;0.30;0.20;;;;;;;16.01;69.90;99397.34;5055421;28;20450;-57
2021/05/22 10:25:06;;;;;;;0.40;0.20;;;;;;;15.96;70.93;99394.97;5055210;28;21029;-57
2021/05/22 10:27:34;;;;;;;0.30;0.20;;;;;;;15.66;70.56;99389.78;5023998;28;20446;-57
2021/05/22 10:30:04;;;;;;;0.30;0.20;;;;;;;15.84;70.68;99393.09;5055098;28;20829;-57
2021/05/22 10:32:32;;;;;;;0.30;0.20;;;;;;;15.98;72.14;99394.88;5055109;28;20494;-57
2021/05/22 10:35:24;;;;;;;0.30;0.20;;;;;;;15.90;71.85;99389.16;5054966;28;20471;-57
2021/05/22 10:37:52;;;;;;;0.30;0.20;;;;;;;15.97;69.34;99388.66;5035115;28;20448;-58
2021/05/22 10:40:46;;;;;;;0.30;0.20;;;;;;;15.98;69.97;99401.09;5049744;28;20460;-57
2021/05/22 10:43:13;;;;;;;0.30;0.20;;;;;;;16.08;70.54;99401.38;5068651;22;20670;-56
2021/05/22 10:45:42;;;;;;;0.30;0.20;;;;;;;16.29;70.09;99409.81;5034796;28;20944;-56
2021/05/22 10:48:29;;;;;;;0.30;0.20;;;;;;;16.54;68.00;99392.94;5034477;28;20452;-58
2021/05/22 10:50:57;;;;;;;0.30;0.20;;;;;;;16.60;68.10;99414.00;5023466;28;20448;-56
2021/05/22 10:53:25;;;;;;;0.30;0.20;;;;;;;16.90;68.62;99402.16;5027870;28;20472;-57
2021/05/22 10:56:11;;;;;;;0.40;0.20;;;;;;;17.08;65.00;99401.75;5005142;28;20903;-56
2021/05/22 10:58:39;;;;;;;0.40;0.20;;;;;;;16.95;65.72;99410.75;5014585;28;20448;-57
2021/05/22 11:01:26;;;;;;;0.40;0.37;;;;;;;17.26;67.34;99390.66;5014744;28;20452;-56
2021/05/22 11:04:13;;;;;;;0.40;0.20;;;;;;;17.45;64.86;99405.41;4995209;28;20473;-57
2021/05/22 11:06:56;;;;;;;0.40;0.20;;;;;;;17.47;63.74;99400.78;5013401;28;20876;-56
2021/05/22 11:12:10;;;;;;;0.40;0.20;;;;;;;17.30;65.99;99403.81;5006462;28;20500;-56
2021/05/22 11:14:46;;;;;;;0.40;0.20;;;;;;;17.17;66.96;99406.47;5011579;28;20472;-56
2021/05/22 11:17:19;;;;;;;0.30;0.20;;;;;;;16.93;67.44;99412.69;5014335;28;20929;-57
2021/05/22 11:20:01;;;;;;;0.40;0.20;;;;;;;16.66;67.95;99407.34;5014197;28;20869;-58
2021/05/22 11:22:36;;;;;;;0.40;0.20;;;;;;;16.30;71.35;99415.06;5013913;28;20960;-57
2021/05/22 11:25:05;;;;;;;0.40;0.20;;;;;;;16.14;78.26;99427.75;5014069;28;20496;-57
2021/05/22 11:28:02;;;;;;;0.30;0.20;;;;;;;16.11;77.30;99419.06;5001126;28;20464;-58
2021/05/22 11:30:38;;;;;;;0.30;0.20;;;;;;;15.88;75.00;99417.88;5013651;28;20902;-57
2021/05/22 11:33:08;;;;;;;0.30;0.20;;;;;;;16.00;72.92;99436.69;5014092;28;20495;-57
2021/05/22 11:35:39;;;;;;;0.30;0.20;;;;;;;15.83;73.84;99422.66;5013873;28;20568;-57
2021/05/22 11:38:15;;;;;;;0.30;0.20;;;;;;;15.87;74.06;99422.38;5013997;28;20448;-57
2021/05/22 11:40:58;;;;;;;0.30;0.20;;;;;;;16.10;72.81;99431.59;4994364;28;20454;-57